Logo AVAMET
Benvolgut visitant, si us plau, ingressa Recuperar contrasenya

València Penya-roja

Dades diàries. Acumulats / Últims 30 dies disponibles

Data Temperatura (°C) Humitat rel. (%) Pressió rel. (hPa) Vent (km/h) Precipitació
Mínima Mitjana Màxima Amplitud
tèrmica
Mínima Mitjana Màxima Mínima Mitjana Màxima Predom. Mitjana Ràfega
màxima
Total
(mm)
Índex-n
Mínima Mitjana Màxima Mínima Mitjana Màxima n
0 a 1
P0 max
mm 5'
Dades mensuals acumulades fins l'últim dia disponible
06/2019 15,0 18,7 21,5 21,7 20,4 24,7 30,0 15,0 11 66 93 1.000 1.009 1.018   8,1 72,4 0,0
Dades anuals acumulades fins l'últim dia disponible
2019 2,7 12,3 21,5 15,8 13,2 20,0 32,0 29,3 11 61 99 987 1.012 1.030   8,7 72,4 101,9
Últims 30 dies disponibles
24-06-2019 20,7     23,3     25,2 4,5 53 76 85 1.008 1.009 1.010 NE 6,7 28,1 0,0
23-06-2019 20,3     23,3     26,2 5,9 58 77 93 1.007 1.009 1.010 E 4,9 22,0 0,0
22-06-2019 20,3     22,7     24,7 4,4 68 75 86 1.009 1.010 1.012 E 5,8 24,5 0,0
21-06-2019 21,5     22,7     24,3 2,8 66 77 87 1.007 1.009 1.011 ENE 7,8 27,0 0,0
20-06-2019 20,3     22,5     24,5 4,2 69 79 93 1.005 1.007 1.009 ENE 7,9 33,1 0,0
19-06-2019 19,0     22,7     26,0 7,0 58 73 88 1.005 1.007 1.008 E 6,2 24,5 0,0
18-06-2019 18,9     21,9     24,5 5,6 61 73 80 1.006 1.008 1.010 ENE 7,6 29,5 0,0
17-06-2019 18,0     21,6     25,2 7,2 61 77 90 1.008 1.010 1.013 E 7,4 29,5 0,0
16-06-2019 19,3     21,1     22,8 3,5 51 72 81 1.012 1.014 1.016 ENE 7,0 24,5 0,0
15-06-2019 21,0     24,3     30,0 9,0 13 38 70 1.006 1.010 1.013 NNW 11,1 40,3 0,0
14-06-2019 17,5     22,7     27,8 10,3 42 58 76 1.002 1.005 1.007 SE 8,1 33,1 0,0
13-06-2019 18,6     20,2     22,0 3,4 61 70 76 1.005 1.007 1.009 NE 9,8 29,5 0,0
12-06-2019 15,0     18,4     20,4 5,4 44 61 75 1.008 1.009 1.011 E 7,3 29,5 0,0
11-06-2019 18,0     20,3     22,1 4,1 46 61 80 1.004 1.006 1.009 NE 9,2 42,8 0,0
10-06-2019 18,8     21,2     23,9 5,1 34 60 76 1.006 1.007 1.009 ENE 7,2 31,7 0,0
09-06-2019 18,2     21,2     25,6 7,4 25 55 72 1.007 1.010 1.014 N 6,0 24,5 0,0
08-06-2019 19,5     20,9     22,4 2,9 59 67 81 1.013 1.015 1.018 NE 11,4 41,8 0,0
07-06-2019 17,8     23,1     29,8 12,0 13 54 83 1.004 1.007 1.013 NW 12,3 43,9 0,0
06-06-2019 17,9     20,6     22,7 4,8 57 71 82 1.005 1.007 1.009 ENE 8,3 29,5 0,0
05-06-2019 18,6     22,3     28,6 10,0 11 57 86 1.000 1.002 1.007 NW 14,2 72,4 0,0
04-06-2019 18,6     20,9     23,5 4,9 67 78 85 1.002 1.005 1.010 ENE 7,1 34,2 0,0
03-06-2019 18,1     21,1     23,9 5,8 51 67 83 1.009 1.011 1.013 ENE 7,6 31,7 0,0
02-06-2019 16,5     21,0     24,0 7,5 32 54 72 1.012 1.013 1.016 E 6,4 25,6 0,0
01-06-2019 17,1     20,6     23,6 6,5 43 61 74 1.014 1.016 1.018 ESE 6,6 25,6 0,0
31-05-2019 17,0     20,4     23,2 6,2 41 63 75 1.017 1.018 1.019 ENE 6,5 24,5 0,0
30-05-2019 16,1     20,0     23,1 7,0 36 56 74 1.017 1.018 1.020 ESE 6,0 27,0 0,0
29-05-2019 17,1     19,7     22,1 5,0 30 44 61 1.012 1.014 1.018 ESE 7,3 29,5 0,0
28-05-2019 18,0     19,8     21,7 3,7 51 65 84 1.006 1.008 1.012 SE 6,9 30,6 0,0
27-05-2019 16,7     19,8     22,4 5,7 50 68 86 1.005 1.007 1.010 ENE 7,2 29,5 0,0
26-05-2019 17,0     19,6     21,8 4,8 43 61 73 1.009 1.010 1.012 ESE 7,1 24,5 0,0
Últims 13 mesos disponibles
05/2019 11,1 16,1 21,3 18,9 18,1 22,1 32,0 20,9 44 66 84 999 1.009 1.018 ENE 8,5 64,8 18,4
04/2019 10,2 12,7 16,0 15,8 15,6 19,5 29,6 19,4 40 64 96 993 1.007 1.019 NE 11,7 68,4 62,2
03/2019 9,1 11,4 16,2 15,2 13,8 19,5 29,2 20,1 40 57 83 1.004 1.017 1.024 NNE 7,8 64,8 19,1
02/2019 2,7 7,7 12,3 12,1 13,2 17,8 23,8 21,1 27 60 73 988 1.019 1.028 WNW 6,3 42,8 0,0
01/2019 2,7 8,2 13,6 12,3 13,2 17,4 21,3 18,6 33 52 72 996 1.013 1.024 O 9,7 70,9 0,7
12/2018 6,8 10,5 14,4 14,0 14,5 19,0 24,4 17,6 45 62 78 1.002 1.019 1.025 ONO 8,2 58,7 8,6
11/2018 8,5 12,7 16,7 15,5 15,4 19,2 23,8 15,3 43 67 96 996 1.009 1.017 ONO 9,9 80,6 141,0
10/2018 8,4 16,3 20,7 19,4 14,1 22,9 27,4 19,0 37 67 86 994 1.008 1.019 NNO 7,6 79,6 175,7
09/2018 17,6 21,7 24,4 24,8 25,0 27,8 31,2 13,6 48 74 85 1.006 1.013 1.022 NE 6,3 42,8 149,3
08/2018 22,6 24,6 26,6 27,2 27,6 29,9 35,2 12,6 56 69 79 1.008 1.014 1.021 ENE 7,4 52,6 21,7
07/2018 23,0 24,1 25,4 26,6 27,3 29,4 35,6 12,6 46 69 79 1.010 1.015 1.020 ENE 7,7 55,1 2,2
06/2018 15,9 20,6 23,5 23,6 22,8 26,5 30,0 14,1 46 65 79 1.010 1.015 1.021 ENE 7,8 47,9 94,0
05/2018 10,5 16,3 19,6 19,2 16,7 22,7 27,6 17,1 42 64 82 1.010 1.015 1.018 ENE 7,4 54,0 16,1
Tots els anys disponibles
2018 3,9 15,9 26,6 18,9 9,3 22,5 35,6 31,7 33 64 96 992 1.014 1.035 E 9,1 92,9 720,1
2017 2,4 15,8 26,3 19,0 10,2 22,6 36,1 33,7 52 63 71 1.016 1.019 1.023 N 8,4 90,7 321,7
2016 4,3 16,2 26,7 19,0 11,4 23,2 35,8 31,5 51 65 74 1.015 1.019 1.031 N 8,3 100,0 601,3
Temperatura (°C)
Humitat relativa (%)
Velocitat del vent i ràfega màxima (km/h)
Direcció del vent (°)
Precipitació (mm)
Nota sobre les dades: s'avisa a l'usuari de la provisionalitat i no oficialitat d'aquestes dades
Logo AVAMET blanc
Web allotjada a Sollutia
Llicència de Creative CommonsLa web d'AVAMET i els seus continguts estan subjectes a una llicència de
Reconeixement - No Comercial - Compartir igual
Properes estacions: Catadau - Urb. Lloma Molina (Inforatge), Altea - Club Nàutic d'Altea (Soci), Ares del Maestrat (Ajuntament Soci),      - - - - -      Últimes estacions: Ontinyent - El Pilar (Soci), Asp - Poliesportiu (Soci), Jacarilla - centro (MeteOrihuela), Elx - Maitino/Vallverda/Velarde/Matola/Ferriol (Soci TiempoElche.com) - - -